Droop, West Virginia
Current Conditions -  °F | °C
As of 10:55 AM on Thursday 23 Oct 2014 (Local Time) from KLWB Reporting Station
Overcast Overcast  
Wind Chill: 45°   Ceiling: 2200
Heat Index: 49°   Visibility: 10mi
Dew Point: 38°   Wind: 9mph
Humidity: 67%   Direction: 10°N
Pressure: 30.14"   Gusts: NA
Location:  38.1931°N, 80.2861°W
Report Text: KLWB 231455Z AUTO 01008KT 10SM OVC022 09/03 A3014 RMK AO2 T00920033
Loading
Personal Weather Stations






























Interactive Weather Map
Tropical Storm Tracking
New forecast layout! Learn more

10-Day Weather Forecast

Advertisements
Track Severe Weather on mobile